Parkman, Ohio
Current Conditions -  °F | °C
As of 7:15 PM on Wednesday 28 Jan 2015 (Local Time) from KPOV Reporting Station
Clear Clear  
Wind Chill: 21°   Ceiling: Unl
Heat Index: 21°   Visibility: 10mi
Dew Point:   Wind: 3mph
Humidity: 49%   Direction: 130°SE
Pressure: 30.27"   Gusts: NA
Location:  41.37°N, 81.06°W
Report Text: KPOV 290015Z AUTO 13003KT 10SM CLR M06/M15 A3027 RMK AO2 T10591150
Loading
Personal Weather Stations






























Interactive Weather Map New forecast layout! Learn more

10-Day Weather Forecast

Advertisements
Track Severe Weather on mobile